createdAt,value
2023-02-09T00:01:47.341Z,35.23
2023-02-09T00:04:48.959Z,34.97
2023-02-09T00:07:50.787Z,31.63
2023-02-09T00:10:52.400Z,35.70
2023-02-09T00:13:53.979Z,37.63
2023-02-09T00:16:55.584Z,37.57
2023-02-09T00:19:57.286Z,37.73
2023-02-09T00:22:58.904Z,41.67
2023-02-09T00:26:01.113Z,36.37
2023-02-09T00:29:03.077Z,39.40
2023-02-09T00:32:04.843Z,39.87
2023-02-09T00:35:07.898Z,36.03
2023-02-09T00:38:10.511Z,36.67
2023-02-09T00:41:12.941Z,35.27
2023-02-09T00:44:14.687Z,32.57
2023-02-09T00:47:16.329Z,33.60
2023-02-09T00:50:18.176Z,33.57
2023-02-09T00:53:20.414Z,36.33
2023-02-09T00:56:22.180Z,36.03
2023-02-09T00:59:23.811Z,32.33
2023-02-09T01:02:25.510Z,36.53
2023-02-09T01:05:27.924Z,36.37
2023-02-09T01:08:29.543Z,40.23
2023-02-09T01:11:31.164Z,44.57
2023-02-09T01:14:32.911Z,37.90
2023-02-09T01:17:34.764Z,40.27
2023-02-09T01:20:36.423Z,45.47
2023-02-09T01:23:38.078Z,48.37
2023-02-09T01:26:39.942Z,43.20
2023-02-09T01:29:41.627Z,32.43
2023-02-09T01:32:43.363Z,33.40
2023-02-09T01:35:45.076Z,35.67
2023-02-09T01:38:46.808Z,31.77
2023-02-09T01:41:48.740Z,30.27
2023-02-09T01:45:04.676Z,32.93
2023-02-09T01:48:06.392Z,35.97
2023-02-09T01:51:08.100Z,34.83
2023-02-09T01:54:14.981Z,38.23
2023-02-09T01:57:22.166Z,41.73
2023-02-09T02:00:24.757Z,40.50
2023-02-09T02:03:27.981Z,36.50
2023-02-09T02:06:30.295Z,36.87
2023-02-09T02:09:32.163Z,32.93
2023-02-09T02:12:34.180Z,46.50
2023-02-09T02:15:55.332Z,29.13
2023-02-09T02:19:15.890Z,26.83
2023-02-09T02:22:36.636Z,25.13
2023-02-09T02:25:50.523Z,29.63
2023-02-09T02:28:55.245Z,33.23
2023-02-09T02:32:09.956Z,29.43
2023-02-09T02:35:23.646Z,27.43
2023-02-09T02:38:40.540Z,35.23
2023-02-09T02:42:10.697Z,36.90
2023-02-09T02:45:16.025Z,35.40
2023-02-09T02:48:40.276Z,42.17
2023-02-09T02:51:46.548Z,37.47
2023-02-09T02:54:57.193Z,36.20
2023-02-09T02:58:00.397Z,36.67
2023-02-09T03:01:03.072Z,35.47
2023-02-09T03:04:05.265Z,35.03
2023-02-09T03:07:08.429Z,40.87
2023-02-09T03:10:24.445Z,37.30
2023-02-09T03:13:26.069Z,43.87
2023-02-09T03:16:32.207Z,51.60
2023-02-09T03:19:46.202Z,51.17
2023-02-09T03:22:49.008Z,41.53
2023-02-09T03:25:52.638Z,37.47
2023-02-09T03:28:56.289Z,36.43
2023-02-09T03:31:58.537Z,45.40
2023-02-09T03:35:00.354Z,46.10
2023-02-09T03:38:02.388Z,40.73
2023-02-09T03:41:03.977Z,38.10
2023-02-09T03:44:24.393Z,38.17
2023-02-09T03:47:25.980Z,35.23
2023-02-09T03:50:29.820Z,38.00
2023-02-09T03:53:31.503Z,41.60
2023-02-09T03:56:33.085Z,43.53
2023-02-09T03:59:35.533Z,52.80
2023-02-09T04:02:37.255Z,57.50
2023-02-09T04:05:38.974Z,46.60
2023-02-09T04:08:43.142Z,49.43
2023-02-09T04:11:45.069Z,47.73
2023-02-09T04:14:46.667Z,53.33
2023-02-09T04:17:50.733Z,51.63
2023-02-09T04:20:52.481Z,47.53
2023-02-09T04:23:54.076Z,43.57
2023-02-09T04:26:55.768Z,43.37
2023-02-09T04:29:57.376Z,45.83
2023-02-09T04:32:58.973Z,43.43
2023-02-09T04:36:00.610Z,38.73
2023-02-09T04:39:02.335Z,43.43
2023-02-09T04:42:03.989Z,39.90
2023-02-09T04:45:06.131Z,33.87
2023-02-09T04:48:08.748Z,38.10
2023-02-09T04:51:10.500Z,37.03
2023-02-09T04:54:12.057Z,39.17
2023-02-09T04:57:32.220Z,41.20
2023-02-09T05:00:33.927Z,47.80
2023-02-09T05:03:35.580Z,46.93
2023-02-09T05:06:37.204Z,49.43
2023-02-09T05:09:38.776Z,51.67
2023-02-09T05:12:40.928Z,63.97
2023-02-09T05:15:42.587Z,58.43
2023-02-09T05:18:44.664Z,64.77
2023-02-09T05:21:46.424Z,76.93
2023-02-09T05:24:48.082Z,74.23
2023-02-09T05:27:49.719Z,66.50
2023-02-09T05:30:53.847Z,52.40
2023-02-09T05:33:55.598Z,64.80
2023-02-09T05:36:57.153Z,53.60
2023-02-09T05:39:58.813Z,46.67
2023-02-09T05:43:02.478Z,50.43
2023-02-09T05:46:06.389Z,64.37
2023-02-09T05:49:10.699Z,67.67
2023-02-09T05:52:16.755Z,71.17
2023-02-09T05:55:18.488Z,74.67
2023-02-09T05:58:20.091Z,61.67
2023-02-09T06:01:21.821Z,74.73
2023-02-09T06:04:25.292Z,62.20
2023-02-09T06:07:26.949Z,62.80
2023-02-09T06:10:28.664Z,73.00
2023-02-09T06:13:30.323Z,78.00
2023-02-09T06:16:32.267Z,74.13
2023-02-09T06:19:33.944Z,64.77
2023-02-09T06:22:35.582Z,65.50
2023-02-09T06:25:38.742Z,59.23
2023-02-09T06:28:40.931Z,50.30
2023-02-09T06:31:42.653Z,51.17
2023-02-09T06:34:44.347Z,70.67
2023-02-09T06:37:46.026Z,97.53
2023-02-09T06:40:47.851Z,54.37
2023-02-09T06:43:49.658Z,72.80
2023-02-09T06:46:51.394Z,65.57
2023-02-09T06:49:52.980Z,63.53
2023-02-09T06:52:54.701Z,69.13
2023-02-09T06:55:59.703Z,65.17
2023-02-09T06:59:01.369Z,82.67
2023-02-09T07:02:03.084Z,94.07
2023-02-09T07:05:05.876Z,63.23
2023-02-09T07:08:07.859Z,79.93
2023-02-09T07:11:11.836Z,63.37
2023-02-09T07:14:13.470Z,66.17
2023-02-09T07:17:15.098Z,62.07
2023-02-09T07:20:16.747Z,70.53
2023-02-09T07:23:18.391Z,74.70
2023-02-09T07:26:20.044Z,80.00
2023-02-09T07:29:21.648Z,67.10
2023-02-09T07:32:23.990Z,66.37
2023-02-09T07:35:25.712Z,69.17
2023-02-09T07:38:27.495Z,68.63
2023-02-09T07:41:29.543Z,65.37
2023-02-09T07:44:31.142Z,61.47
2023-02-09T07:47:34.228Z,71.57
2023-02-09T07:50:35.882Z,53.93
2023-02-09T07:53:37.530Z,65.33
2023-02-09T07:56:39.593Z,65.87
2023-02-09T07:59:41.315Z,67.90
2023-02-09T08:02:43.506Z,80.13
2023-02-09T08:05:51.160Z,85.37
2023-02-09T08:08:53.368Z,65.67
2023-02-09T08:11:58.057Z,59.00
2023-02-09T08:14:59.689Z,45.73
2023-02-09T08:18:03.122Z,40.13
2023-02-09T08:21:05.935Z,21.67
2023-02-09T08:24:08.063Z,27.87
2023-02-09T08:27:10.040Z,44.17
2023-02-09T08:30:12.897Z,35.13
2023-02-09T08:33:14.561Z,44.10
2023-02-09T08:36:16.663Z,40.33
2023-02-09T08:39:18.326Z,49.23
2023-02-09T08:42:19.955Z,44.00
2023-02-09T08:45:21.963Z,30.70
2023-02-09T08:48:23.698Z,123.87
2023-02-09T08:51:25.287Z,48.27
2023-02-09T08:54:27.135Z,24.37
2023-02-09T08:57:42.771Z,23.53
2023-02-09T09:00:45.541Z,31.20
2023-02-09T09:03:47.318Z,61.30
2023-02-09T09:09:56.506Z,22.27
2023-02-09T09:12:58.243Z,47.00
2023-02-09T09:15:59.926Z,25.60
2023-02-09T09:19:01.495Z,24.37
2023-02-09T09:22:03.719Z,17.50
2023-02-09T09:25:05.767Z,35.43
2023-02-09T09:28:07.984Z,26.20
2023-02-09T09:31:11.200Z,36.77
2023-02-09T09:34:12.926Z,37.10
2023-02-09T09:37:14.565Z,31.40
2023-02-09T09:40:21.361Z,31.13
2023-02-09T09:43:34.702Z,34.03
2023-02-09T09:46:38.595Z,23.80
2023-02-09T09:49:40.478Z,52.93
2023-02-09T09:52:43.443Z,21.17
2023-02-09T09:55:45.574Z,15.20
2023-02-09T09:58:47.424Z,37.80
2023-02-09T10:01:50.658Z,31.27
2023-02-09T10:04:52.560Z,42.07
2023-02-09T10:07:54.623Z,23.63
2023-02-09T10:10:56.410Z,47.77
2023-02-09T10:13:58.263Z,33.90
2023-02-09T10:16:59.889Z,33.23
2023-02-09T10:20:03.873Z,28.83
2023-02-09T10:23:05.458Z,29.43
2023-02-09T10:26:07.055Z,37.07
2023-02-09T10:29:11.787Z,37.23
2023-02-09T10:32:15.284Z,43.60
2023-02-09T10:35:27.436Z,37.53
2023-02-09T10:38:33.157Z,25.07
2023-02-09T10:41:35.335Z,33.43
2023-02-09T10:44:40.194Z,27.23
2023-02-09T10:47:42.038Z,49.40
2023-02-09T10:50:49.779Z,30.97
2023-02-09T10:54:08.047Z,33.17
2023-02-09T10:57:26.726Z,21.63
2023-02-09T11:00:30.228Z,25.83
2023-02-09T11:03:33.167Z,27.57
2023-02-09T11:06:48.541Z,30.40
2023-02-09T11:09:51.437Z,45.13
2023-02-09T11:12:53.065Z,33.97
2023-02-09T11:16:16.149Z,21.93
2023-02-09T11:19:22.756Z,29.23
2023-02-09T11:22:47.505Z,21.77
2023-02-09T11:25:53.363Z,17.07
2023-02-09T11:29:18.061Z,21.80
2023-02-09T11:32:24.236Z,19.00
2023-02-09T11:35:28.458Z,16.67
2023-02-09T11:38:46.641Z,18.73
2023-02-09T11:42:33.377Z,22.57
2023-02-09T11:45:37.670Z,30.93
2023-02-09T11:48:43.490Z,25.70
2023-02-09T11:51:46.863Z,64.17
2023-02-09T11:54:50.624Z,47.77
2023-02-09T11:57:54.620Z,43.33
2023-02-09T12:01:14.361Z,90.47
2023-02-09T12:04:16.959Z,49.60
2023-02-09T12:07:27.701Z,28.33
2023-02-09T12:10:35.402Z,43.60
2023-02-09T12:13:45.898Z,60.93
2023-02-09T12:16:50.503Z,42.27
2023-02-09T12:19:59.509Z,50.00
2023-02-09T12:23:19.953Z,49.80
2023-02-09T12:26:21.533Z,42.23
2023-02-09T12:29:23.209Z,32.93
2023-02-09T12:32:26.739Z,43.40
2023-02-09T12:35:37.275Z,34.17
2023-02-09T12:38:55.917Z,29.30
2023-02-09T12:42:01.313Z,31.00
2023-02-09T12:45:24.148Z,77.40
2023-02-09T12:48:25.866Z,31.93
2023-02-09T12:51:42.254Z,25.73
2023-02-09T12:54:46.910Z,40.80
2023-02-09T12:57:49.847Z,91.90
2023-02-09T13:00:53.733Z,129.00
2023-02-09T13:04:04.398Z,113.47
2023-02-09T13:07:07.751Z,35.60
2023-02-09T13:10:18.695Z,57.73
2023-02-09T13:13:24.950Z,29.77
2023-02-09T13:16:29.744Z,28.33
2023-02-09T13:19:48.164Z,23.33
2023-02-09T13:22:53.183Z,41.90
2023-02-09T13:26:00.533Z,28.17
2023-02-09T13:29:20.243Z,30.17
2023-02-09T13:32:35.102Z,43.13
2023-02-09T13:35:40.495Z,40.93
2023-02-09T13:38:42.339Z,30.43
2023-02-09T13:41:44.711Z,26.73
2023-02-09T13:44:46.961Z,19.80
2023-02-09T13:47:48.646Z,26.23
2023-02-09T13:50:51.219Z,25.83
2023-02-09T13:53:56.882Z,19.33
2023-02-09T13:57:00.681Z,25.17
2023-02-09T14:00:08.822Z,22.80
2023-02-09T14:03:24.491Z,24.60
2023-02-09T14:06:41.597Z,21.77
2023-02-09T14:09:49.184Z,35.00
2023-02-09T14:12:56.515Z,23.53
2023-02-09T14:16:08.743Z,35.17
2023-02-09T14:19:31.876Z,95.23
2023-02-09T14:22:35.496Z,86.83
2023-02-09T14:25:37.352Z,35.90
2023-02-09T14:28:38.908Z,26.37
2023-02-09T14:31:49.275Z,40.07
2023-02-09T14:34:51.123Z,31.00
2023-02-09T14:37:53.961Z,31.23
2023-02-09T14:40:55.629Z,36.70
2023-02-09T14:44:02.328Z,35.63
2023-02-09T14:47:03.981Z,35.57
2023-02-09T14:50:15.853Z,41.60
2023-02-09T14:53:25.607Z,27.40
2023-02-09T14:56:30.815Z,49.90
2023-02-09T14:59:32.469Z,50.33
2023-02-09T15:02:34.272Z,42.13
2023-02-09T15:05:36.706Z,43.43
2023-02-09T15:08:39.290Z,47.43
2023-02-09T15:11:59.301Z,39.67
2023-02-09T15:15:01.479Z,34.20
2023-02-09T15:18:03.157Z,54.23
2023-02-09T15:21:04.837Z,65.50
2023-02-09T15:24:06.478Z,99.90
2023-02-09T15:27:17.240Z,80.87
2023-02-09T15:30:19.140Z,53.97
2023-02-09T15:33:20.806Z,53.87
2023-02-09T15:36:22.695Z,67.53
2023-02-09T15:39:25.208Z,80.27
2023-02-09T15:42:45.492Z,62.10
2023-02-09T15:45:50.002Z,49.20
2023-02-09T15:48:51.688Z,41.37
2023-02-09T15:51:53.473Z,41.87
2023-02-09T15:54:55.200Z,35.27
2023-02-09T16:01:13.521Z,27.23
2023-02-09T16:04:18.346Z,35.67
2023-02-09T16:07:24.946Z,68.73
2023-02-09T16:10:27.608Z,90.27
2023-02-09T16:13:29.288Z,88.57
2023-02-09T16:16:31.876Z,301.47
2023-02-09T16:19:33.614Z,233.03
2023-02-09T16:22:35.781Z,88.80
2023-02-09T16:25:37.452Z,67.10
2023-02-09T16:28:39.260Z,130.97
2023-02-09T16:31:41.291Z,133.37
2023-02-09T16:34:43.193Z,129.53
2023-02-09T16:37:45.552Z,113.30
2023-02-09T16:40:47.223Z,107.33
2023-02-09T16:43:48.887Z,131.57
2023-02-09T16:46:55.236Z,120.20
2023-02-09T16:50:01.311Z,123.87
2023-02-09T16:53:09.932Z,121.00
2023-02-09T16:56:12.327Z,122.60
2023-02-09T16:59:13.978Z,115.87
2023-02-09T17:02:33.724Z,115.23
2023-02-09T17:05:37.146Z,104.90
2023-02-09T17:08:39.289Z,126.20
2023-02-09T17:11:40.987Z,126.93
2023-02-09T17:14:42.560Z,119.87
2023-02-09T17:17:45.942Z,124.50
2023-02-09T17:20:53.439Z,107.60
2023-02-09T17:23:57.467Z,115.03
2023-02-09T17:26:59.208Z,110.50
2023-02-09T17:30:00.929Z,122.00
2023-02-09T17:33:03.648Z,119.67
2023-02-09T17:39:28.450Z,116.67
2023-02-09T17:42:31.303Z,149.80
2023-02-09T17:45:35.153Z,126.13
2023-02-09T17:48:36.885Z,113.70
2023-02-09T17:51:40.346Z,139.03
2023-02-09T17:54:49.366Z,104.57
2023-02-09T17:57:51.279Z,110.07
2023-02-09T18:00:53.392Z,141.43
2023-02-09T18:03:55.673Z,145.00
2023-02-09T18:06:58.306Z,126.17
2023-02-09T18:10:00.118Z,126.63
2023-02-09T18:13:01.938Z,104.97
2023-02-09T18:16:03.611Z,121.97
2023-02-09T18:19:05.255Z,131.40
2023-02-09T18:22:06.929Z,119.43
2023-02-09T18:25:15.007Z,168.73
2023-02-09T18:28:16.982Z,127.43
2023-02-09T18:31:19.477Z,111.47
2023-02-09T18:34:23.938Z,104.63
2023-02-09T18:37:25.617Z,89.63
2023-02-09T18:40:27.460Z,106.97
2023-02-09T18:43:29.093Z,85.97
2023-02-09T18:46:30.746Z,104.50
2023-02-09T18:49:32.540Z,97.03
2023-02-09T18:52:34.820Z,108.30
2023-02-09T18:55:36.501Z,61.37
2023-02-09T18:58:38.800Z,73.00
2023-02-09T19:01:41.130Z,99.67
2023-02-09T19:04:43.872Z,70.07
2023-02-09T19:07:46.172Z,88.07
2023-02-09T19:10:47.878Z,77.97
2023-02-09T19:14:08.246Z,81.37
2023-02-09T19:17:13.347Z,70.70
2023-02-09T19:20:20.548Z,63.37
2023-02-09T19:23:23.494Z,72.33
2023-02-09T19:26:25.132Z,68.37
2023-02-09T19:29:28.692Z,50.23
2023-02-09T19:32:30.321Z,60.97
2023-02-09T19:35:32.017Z,64.73
2023-02-09T19:38:33.650Z,51.73
2023-02-09T19:41:35.488Z,67.97
2023-02-09T19:44:37.164Z,68.20
2023-02-09T19:47:38.916Z,69.63
2023-02-09T19:50:40.608Z,61.27
2023-02-09T19:53:42.181Z,71.57
2023-02-09T19:56:45.335Z,78.80
2023-02-09T19:59:47.103Z,64.30
2023-02-09T20:02:49.326Z,58.20
2023-02-09T20:05:51.209Z,66.37
2023-02-09T20:08:52.809Z,64.87
2023-02-09T20:11:54.643Z,44.43
2023-02-09T20:14:56.288Z,64.90
2023-02-09T20:17:58.140Z,75.03
2023-02-09T20:20:59.812Z,63.03
2023-02-09T20:24:01.510Z,62.67
2023-02-09T20:27:03.328Z,59.03
2023-02-09T20:30:05.727Z,69.87
2023-02-09T20:33:10.360Z,62.43
2023-02-09T20:36:11.973Z,61.83
2023-02-09T20:39:16.187Z,60.77
2023-02-09T20:42:36.643Z,48.00
2023-02-09T20:45:57.185Z,36.60
2023-02-09T20:48:58.876Z,46.03
2023-02-09T20:52:00.503Z,46.80
2023-02-09T20:55:02.138Z,33.83
2023-02-09T20:58:04.049Z,49.23
2023-02-09T21:01:08.744Z,32.73
2023-02-09T21:04:10.407Z,33.13
2023-02-09T21:07:12.950Z,36.20
2023-02-09T21:10:15.960Z,38.67
2023-02-09T21:13:17.542Z,50.60
2023-02-09T21:16:20.557Z,45.27
2023-02-09T21:19:23.889Z,38.57
2023-02-09T21:22:25.552Z,41.40
2023-02-09T21:25:27.841Z,30.30
2023-02-09T21:28:29.568Z,35.90
2023-02-09T21:31:31.269Z,50.63
2023-02-09T21:34:32.885Z,49.60
2023-02-09T21:37:34.648Z,41.70
2023-02-09T21:40:36.427Z,43.93
2023-02-09T21:43:38.208Z,30.83
2023-02-09T21:46:39.827Z,31.57
2023-02-09T21:49:41.474Z,26.23
2023-02-09T21:52:43.073Z,48.97
2023-02-09T21:55:44.727Z,59.00
2023-02-09T21:58:46.686Z,40.57
2023-02-09T22:01:48.230Z,36.53
2023-02-09T22:04:53.024Z,36.33
2023-02-09T22:07:54.745Z,51.80
2023-02-09T22:10:59.492Z,48.07
2023-02-09T22:14:01.247Z,38.93
2023-02-09T22:17:03.112Z,49.87
2023-02-09T22:20:05.136Z,26.63
2023-02-09T22:23:07.114Z,37.07
2023-02-09T22:26:09.961Z,46.77
2023-02-09T22:29:12.727Z,34.07
2023-02-09T22:32:14.345Z,42.63
2023-02-09T22:35:15.976Z,45.07
2023-02-09T22:38:17.608Z,38.40
2023-02-09T22:41:23.197Z,36.17
2023-02-09T22:44:26.663Z,28.63
2023-02-09T22:47:28.336Z,34.40
2023-02-09T22:50:30.006Z,30.33
2023-02-09T22:53:31.766Z,28.37
2023-02-09T22:56:33.754Z,36.07
2023-02-09T22:59:36.324Z,32.53
2023-02-09T23:02:37.900Z,18.50
2023-02-09T23:05:39.480Z,33.80
2023-02-09T23:08:41.170Z,30.83
2023-02-09T23:11:44.188Z,35.57
2023-02-09T23:14:45.914Z,31.37
2023-02-09T23:17:47.568Z,41.07
2023-02-09T23:20:49.686Z,20.83
2023-02-09T23:23:51.639Z,46.47
2023-02-09T23:26:55.017Z,44.33
2023-02-09T23:29:56.618Z,40.63
2023-02-09T23:32:58.235Z,54.00
2023-02-09T23:36:02.533Z,51.17
2023-02-09T23:39:05.485Z,50.63
2023-02-09T23:42:07.109Z,60.90
2023-02-09T23:45:08.919Z,52.30
2023-02-09T23:48:10.497Z,59.00
2023-02-09T23:51:14.150Z,57.60
2023-02-09T23:54:15.733Z,50.90
2023-02-09T23:57:17.952Z,54.37
